Time;durP1;ratioP1;P1;durP2;ratioP2;P2;SDS_P1;SDS_P2;PMS_P1;PMS_P2;Temp;Humidity;BMP_temperature;BMP_pressure;BME280_temperature;BME280_humidity;BME280_pressure;Samples;Min_cycle;Max_cycle;Signal;HPM_P1;HPM_P2
2024/04/12 00:01:41;;;;;;;1999.90;999.90;;;12.40;61.30;;;;;;5412909;26;20003;-70
2024/04/12 00:04:15;;;;;;;1999.90;999.90;;;12.30;62.10;;;;;;5420166;26;20002;-71
2024/04/12 00:06:44;;;;;;;1999.90;999.90;;;12.40;60.70;;;;;;5444602;26;20010;-71
2024/04/12 00:09:17;;;;;;;1999.90;999.90;;;12.40;60.80;;;;;;5417121;26;20839;-71
2024/04/12 00:11:46;;;;;;;1999.90;999.90;;;12.40;60.30;;;;;;5414115;26;19991;-71
2024/04/12 00:14:15;;;;;;;1999.90;999.90;;;12.40;60.20;;;;;;5407929;26;20080;-71
2024/04/12 00:16:49;;;;;;;1999.90;999.90;;;12.40;60.50;;;;;;5418126;26;20097;-71
2024/04/12 00:19:18;;;;;;;1999.90;999.90;;;12.30;60.80;;;;;;5443695;26;19995;-71
2024/04/12 00:21:47;;;;;;;1999.90;999.90;;;12.30;61.20;;;;;;5425211;26;20010;-71
2024/04/12 00:24:15;;;;;;;1999.90;999.90;;;12.10;61.70;;;;;;5420516;26;20043;-71
2024/04/12 00:26:43;;;;;;;1999.90;999.90;;;12.10;62.20;;;;;;5405083;26;20555;-71
2024/04/12 00:29:25;;;;;;;1999.90;999.90;;;12.10;62.50;;;;;;5409463;26;20071;-71
2024/04/12 00:31:54;;;;;;;1999.90;999.90;;;12.00;62.90;;;;;;5414646;26;20014;-71
2024/04/12 00:34:26;;;;;;;1999.90;999.90;;;11.90;63.40;;;;;;5420383;26;20011;-71
2024/04/12 00:36:54;;;;;;;1999.90;999.90;;;11.90;63.30;;;;;;5423793;26;20109;-71
2024/04/12 00:39:35;;;;;;;1999.90;999.90;;;12.00;62.90;;;;;;5430667;26;20927;-71
2024/04/12 00:42:03;;;;;;;1999.90;999.90;;;11.90;63.50;;;;;;5428688;26;20039;-71
2024/04/12 00:44:29;;;;;;;1999.90;999.90;;;11.70;64.20;;;;;;5424135;26;20008;-71
2024/04/12 00:46:59;;;;;;;1999.90;999.90;;;11.70;64.20;;;;;;5432702;26;20079;-71
2024/04/12 00:49:30;;;;;;;1999.90;999.90;;;11.70;64.40;;;;;;5424067;26;20253;-71
2024/04/12 00:52:02;;;;;;;1999.90;999.90;;;11.80;63.80;;;;;;5409507;26;20080;-71
2024/04/12 00:54:29;;;;;;;1999.90;999.90;;;11.70;64.10;;;;;;5422772;26;19996;-71
2024/04/12 00:56:58;;;;;;;1999.90;999.90;;;11.60;64.40;;;;;;5417024;26;19994;-71
2024/04/12 00:59:24;;;;;;;1999.90;999.90;;;11.50;64.90;;;;;;5418705;26;20013;-71
2024/04/12 01:01:50;;;;;;;1999.90;999.90;;;11.50;64.90;;;;;;5418531;26;19999;-70
2024/04/12 01:04:20;;;;;;;1999.90;999.90;;;11.40;65.50;;;;;;5419760;26;20023;-70
2024/04/12 01:06:47;;;;;;;1999.90;999.90;;;11.60;64.70;;;;;;5419377;26;19999;-71
2024/04/12 01:09:13;;;;;;;1999.90;999.90;;;11.50;64.50;;;;;;5418192;26;20007;-70
2024/04/12 01:11:39;;;;;;;1999.90;999.90;;;11.50;64.90;;;;;;5412048;26;19995;-70
2024/04/12 01:14:06;;;;;;;1999.90;999.90;;;11.50;64.70;;;;;;5422850;26;20970;-70
2024/04/12 01:16:32;;;;;;;1999.90;999.90;;;11.30;65.40;;;;;;5412204;26;20053;-70
2024/04/12 01:18:58;;;;;;;1999.90;999.90;;;11.30;65.70;;;;;;5416910;26;20004;-71
2024/04/12 01:21:24;;;;;;;1999.90;999.90;;;11.20;66.30;;;;;;5415139;26;20343;-71
2024/04/12 01:23:54;;;;;;;1999.90;999.90;;;11.20;66.30;;;;;;5410875;26;20030;-71
2024/04/12 01:26:23;;;;;;;1999.90;999.90;;;11.00;66.90;;;;;;5416571;26;20000;-71
2024/04/12 01:28:51;;;;;;;1999.90;999.90;;;10.90;67.80;;;;;;5435518;26;20017;-71
2024/04/12 01:31:17;;;;;;;1999.90;999.90;;;11.00;67.00;;;;;;5414347;26;20011;-71
2024/04/12 01:33:51;;;;;;;1999.90;999.90;;;11.10;66.80;;;;;;5424862;26;19999;-71
2024/04/12 01:36:18;;;;;;;1999.90;999.90;;;11.10;66.70;;;;;;5419219;26;20418;-72
2024/04/12 01:38:53;;;;;;;1999.90;999.90;;;11.00;66.70;;;;;;5430044;26;19998;-71
2024/04/12 01:41:32;;;;;;;1999.90;999.90;;;11.10;66.10;;;;;;5421803;26;20013;-71
2024/04/12 01:44:06;;;;;;;1999.90;999.90;;;11.00;67.20;;;;;;5431619;26;20002;-70
2024/04/12 01:46:38;;;;;;;1999.90;999.90;;;10.90;67.20;;;;;;5422796;26;20000;-71
2024/04/12 01:49:10;;;;;;;1999.90;999.90;;;10.90;67.10;;;;;;5417783;26;20014;-71
2024/04/12 01:51:41;;;;;;;1999.90;999.90;;;10.90;66.90;;;;;;5417882;26;20010;-70
2024/04/12 01:54:13;;;;;;;1999.90;999.90;;;11.10;65.40;;;;;;5414131;26;20077;-71
2024/04/12 01:56:41;;;;;;;1999.90;999.90;;;11.00;65.70;;;;;;5423927;26;20134;-71
2024/04/12 01:59:07;;;;;;;1999.90;999.90;;;11.00;65.50;;;;;;5423419;26;19999;-71
2024/04/12 02:01:34;;;;;;;1999.90;999.90;;;10.90;66.40;;;;;;5416901;26;20352;-71
2024/04/12 02:04:02;;;;;;;;;;;10.90;66.50;;;;;;5447793;26;20096;-71
2024/04/12 02:06:28;;;;;;;1999.90;999.90;;;10.80;66.90;;;;;;5428562;26;19992;-71
2024/04/12 02:08:57;;;;;;;1999.90;999.90;;;10.70;67.10;;;;;;5420090;26;20011;-71
2024/04/12 02:11:23;;;;;;;1999.90;999.90;;;10.80;66.30;;;;;;5428050;26;20010;-71
2024/04/12 02:13:52;;;;;;;1999.90;999.90;;;10.80;66.10;;;;;;5423339;26;20002;-71
2024/04/12 02:16:20;;;;;;;1999.90;999.90;;;10.70;66.30;;;;;;5422862;26;20139;-71
2024/04/12 02:18:46;;;;;;;1999.90;999.90;;;10.60;66.60;;;;;;5424334;26;20007;-71
2024/04/12 02:21:12;;;;;;;1999.90;999.90;;;10.60;66.80;;;;;;5418995;26;20003;-71
2024/04/12 02:23:38;;;;;;;1999.90;999.90;;;10.50;66.80;;;;;;5417488;26;20194;-71
2024/04/12 02:26:05;;;;;;;1999.90;999.90;;;10.50;66.90;;;;;;5409421;26;20060;-71
2024/04/12 02:28:41;;;;;;;1999.90;999.90;;;10.40;66.20;;;;;;5414315;26;19999;-71
2024/04/12 02:31:09;;;;;;;;;;;10.50;65.80;;;;;;5424571;26;20004;-71
2024/04/12 02:33:36;;;;;;;1999.90;999.90;;;10.40;65.80;;;;;;5432709;26;19931;-71
2024/04/12 02:36:12;;;;;;;1999.90;999.90;;;10.30;66.70;;;;;;5424047;26;20002;-71
2024/04/12 02:38:39;;;;;;;1999.90;999.90;;;10.30;66.60;;;;;;5425327;26;20456;-71
2024/04/12 02:41:05;;;;;;;1999.90;999.90;;;10.20;66.20;;;;;;5425306;26;20439;-71
2024/04/12 02:43:32;;;;;;;1999.90;999.90;;;10.40;64.90;;;;;;5430148;26;20014;-71
2024/04/12 02:45:58;;;;;;;1999.90;999.90;;;10.10;65.70;;;;;;5433302;26;20829;-71
2024/04/12 02:48:25;;;;;;;1999.90;999.90;;;10.10;66.10;;;;;;5423981;26;20006;-71
2024/04/12 02:50:55;;;;;;;1999.90;999.90;;;10.00;66.40;;;;;;5416753;26;20099;-70
2024/04/12 02:53:24;;;;;;;1999.90;999.90;;;9.90;66.50;;;;;;5416271;26;20014;-71
2024/04/12 02:56:08;;;;;;;1999.90;999.90;;;10.00;65.90;;;;;;5410726;26;20014;-70
2024/04/12 02:58:41;;;;;;;1999.90;999.90;;;10.00;65.30;;;;;;5422804;26;20017;-71
2024/04/12 03:01:11;;;;;;;1999.90;999.90;;;10.00;65.60;;;;;;5424085;26;20732;-71
2024/04/12 03:03:45;;;;;;;1999.90;999.90;;;9.90;65.10;;;;;;5420323;26;20000;-71
2024/04/12 03:06:12;;;;;;;1999.90;999.90;;;9.90;65.20;;;;;;5416867;26;20007;-72
2024/04/12 03:08:43;;;;;;;;;;;9.80;65.90;;;;;;5412806;26;20007;-71
2024/04/12 03:11:14;;;;;;;1999.90;999.90;;;9.80;65.40;;;;;;5416084;26;19932;-71
2024/04/12 03:13:44;;;;;;;1999.90;999.90;;;9.80;65.10;;;;;;5415136;26;20000;-71
2024/04/12 03:16:13;;;;;;;1999.90;999.90;;;9.70;65.60;;;;;;5425822;26;20426;-71
2024/04/12 03:18:46;;;;;;;1999.90;999.90;;;9.60;65.50;;;;;;5424908;26;20027;-72
2024/04/12 03:21:14;;;;;;;1999.90;999.90;;;9.70;65.10;;;;;;5418047;26;20022;-71
2024/04/12 03:23:44;;;;;;;1999.90;999.90;;;9.70;64.60;;;;;;5415595;26;20000;-71
2024/04/12 03:26:14;;;;;;;1999.90;999.90;;;9.70;64.50;;;;;;5412800;26;19995;-70
2024/04/12 03:28:41;;;;;;;1999.90;999.90;;;9.70;64.20;;;;;;5441968;26;20441;-70
2024/04/12 03:31:08;;;;;;;1999.90;999.90;;;9.70;64.80;;;;;;5410704;26;20101;-71
2024/04/12 03:33:42;;;;;;;1999.90;999.90;;;9.40;66.60;;;;;;5413820;26;19995;-71
2024/04/12 03:41:56;;;;;;;1999.90;999.90;;;9.50;65.80;;;;;;5429435;26;20071;-71
2024/04/12 03:44:25;;;;;;;1999.90;999.90;;;9.40;66.40;;;;;;5422509;26;20007;-70
2024/04/12 03:46:52;;;;;;;1999.90;999.90;;;9.30;66.30;;;;;;5435988;26;20042;-71
2024/04/12 03:49:21;;;;;;;;;;;9.30;66.40;;;;;;5409331;26;20555;-71
2024/04/12 03:51:50;;;;;;;1999.90;999.90;;;9.30;66.30;;;;;;5411968;26;20588;-71
2024/04/12 03:54:21;;;;;;;1999.90;999.90;;;9.30;66.20;;;;;;5410133;26;20055;-71
2024/04/12 03:56:52;;;;;;;1999.90;999.90;;;9.30;66.00;;;;;;5431433;26;20625;-70
2024/04/12 03:59:19;;;;;;;1999.90;999.90;;;9.30;65.70;;;;;;5420932;26;20426;-71
2024/04/12 04:01:48;;;;;;;1999.90;999.90;;;9.30;65.80;;;;;;5427645;26;20000;-70
2024/04/12 04:04:17;;;;;;;1999.90;999.90;;;9.20;66.10;;;;;;5411228;26;20000;-71
2024/04/12 04:06:56;;;;;;;1999.90;999.90;;;9.10;67.10;;;;;;5438752;26;19995;-71
2024/04/12 04:09:22;;;;;;;1999.90;999.90;;;9.10;67.00;;;;;;5428561;26;20258;-71
2024/04/12 04:11:49;;;;;;;1999.90;999.90;;;9.20;66.00;;;;;;5423627;26;20004;-71
2024/04/12 04:14:19;;;;;;;1999.90;999.90;;;9.10;67.00;;;;;;5431866;26;20013;-70
2024/04/12 04:16:49;;;;;;;1999.90;999.90;;;9.00;66.50;;;;;;5415339;26;20360;-71
2024/04/12 04:19:19;;;;;;;1999.90;999.90;;;9.00;67.60;;;;;;5413247;26;20095;-71
2024/04/12 04:21:46;;;;;;;1999.90;999.90;;;9.00;66.70;;;;;;5418446;26;20000;-71
2024/04/12 04:24:12;;;;;;;1999.90;999.90;;;9.00;66.50;;;;;;5423856;26;19999;-71
2024/04/12 04:26:40;;;;;;;1999.90;999.90;;;9.00;66.60;;;;;;5412924;26;19999;-71
2024/04/12 04:29:09;;;;;;;1999.90;999.90;;;9.10;66.20;;;;;;5409269;26;19999;-71
2024/04/12 04:31:52;;;;;;;1999.90;999.90;;;9.10;65.60;;;;;;5415145;26;20014;-71
2024/04/12 04:34:20;;;;;;;1999.90;999.90;;;8.90;65.80;;;;;;5411450;26;20018;-71
2024/04/12 04:36:49;;;;;;;1999.90;999.90;;;9.00;65.70;;;;;;5412659;26;20013;-70
2024/04/12 04:39:21;;;;;;;1999.90;999.90;;;9.00;65.30;;;;;;5415508;26;19999;-71
2024/04/12 04:41:49;;;;;;;1999.90;999.90;;;9.00;65.50;;;;;;5427038;26;20754;-71
2024/04/12 04:44:16;;;;;;;1999.90;999.90;;;9.10;65.00;;;;;;5428862;26;20003;-71
2024/04/12 04:46:45;;;;;;;1999.90;999.90;;;9.10;64.80;;;;;;5423570;26;20007;-70
2024/04/12 04:49:15;;;;;;;1999.90;999.90;;;9.00;65.30;;;;;;5415026;26;20226;-70
2024/04/12 04:51:42;;;;;;;1999.90;999.90;;;9.00;65.10;;;;;;5415242;26;20019;-70
2024/04/12 04:54:11;;;;;;;1999.90;999.90;;;9.00;65.20;;;;;;5415719;26;20006;-71
2024/04/12 04:56:41;;;;;;;1999.90;999.90;;;8.90;65.00;;;;;;5412987;26;20004;-71
2024/04/12 04:59:18;;;;;;;1999.90;999.90;;;9.00;64.90;;;;;;5424120;26;20027;-70
2024/04/12 05:01:44;;;;;;;;;;;8.90;65.10;;;;;;5426304;26;20018;-71
2024/04/12 05:04:15;;;;;;;1999.90;999.90;;;8.90;65.60;;;;;;5435099;26;20255;-71
2024/04/12 05:06:43;;;;;;;1999.90;999.90;;;8.90;65.70;;;;;;5417774;26;20153;-71
2024/04/12 05:09:09;;;;;;;1999.90;999.90;;;8.90;65.80;;;;;;5409948;26;20002;-71
2024/04/12 05:11:38;;;;;;;1999.90;999.90;;;8.90;66.10;;;;;;5406843;26;20067;-71
2024/04/12 05:14:14;;;;;;;1999.90;999.90;;;8.80;66.40;;;;;;5412653;26;20007;-71
2024/04/12 05:16:46;;;;;;;1999.90;999.90;;;8.70;67.60;;;;;;5418754;26;20011;-71
2024/04/12 05:19:12;;;;;;;1999.90;999.90;;;8.80;67.90;;;;;;5421345;26;21076;-71
2024/04/12 05:21:41;;;;;;;1999.90;999.90;;;8.80;67.10;;;;;;5417917;26;20002;-71
2024/04/12 05:24:11;;;;;;;1999.90;999.90;;;8.90;66.70;;;;;;5418418;26;20072;-71
2024/04/12 05:26:42;;;;;;;1999.90;999.90;;;8.80;67.30;;;;;;5411258;26;20018;-71
2024/04/12 05:29:12;;;;;;;1999.90;999.90;;;8.90;67.10;;;;;;5410043;26;20552;-71
2024/04/12 05:31:42;;;;;;;1999.90;999.90;;;9.20;66.40;;;;;;5417644;26;19996;-71
2024/04/12 05:34:11;;;;;;;1999.90;999.90;;;9.40;66.00;;;;;;5424251;26;20009;-71
2024/04/12 05:36:41;;;;;;;1999.90;999.90;;;9.50;66.60;;;;;;5427091;26;20466;-70
2024/04/12 05:39:11;;;;;;;1999.90;999.90;;;9.70;66.10;;;;;;5433025;26;20010;-71
2024/04/12 05:41:44;;;;;;;1999.90;999.90;;;9.80;65.60;;;;;;5426588;26;20730;-70
2024/04/12 05:44:10;;;;;;;1999.90;999.90;;;10.00;65.20;;;;;;5428814;26;20022;-71
2024/04/12 05:46:39;;;;;;;1999.90;999.90;;;10.20;65.00;;;;;;5417817;26;19991;-71
2024/04/12 05:49:09;;;;;;;1999.90;999.90;;;10.40;64.30;;;;;;5418726;26;19995;-71
2024/04/12 05:51:41;;;;;;;1999.90;999.90;;;10.80;63.10;;;;;;5423730;26;20841;-70
2024/04/12 05:54:10;;;;;;;1999.90;999.90;;;11.30;61.90;;;;;;5410343;26;20018;-71
2024/04/12 05:56:39;;;;;;;1999.90;999.90;;;11.40;59.80;;;;;;5412754;26;19999;-71
2024/04/12 05:59:14;;;;;;;1999.90;999.90;;;11.60;60.10;;;;;;5416618;26;20339;-71
2024/04/12 06:01:49;;;;;;;1999.90;999.90;;;11.60;60.50;;;;;;5414262;26;19999;-71
2024/04/12 06:04:19;;;;;;;1999.90;999.90;;;11.80;60.70;;;;;;5424222;26;20022;-72
2024/04/12 06:06:48;;;;;;;1999.90;999.90;;;11.90;61.10;;;;;;5427673;26;20046;-72
2024/04/12 06:09:21;;;;;;;1999.90;999.90;;;12.30;59.40;;;;;;5425894;26;20481;-72
2024/04/12 06:11:48;;;;;;;1999.90;999.90;;;12.50;59.60;;;;;;5420384;26;20014;-72
2024/04/12 06:14:14;;;;;;;1999.90;999.90;;;12.50;58.10;;;;;;5423239;26;20079;-71
2024/04/12 06:16:40;;;;;;;1999.90;999.90;;;13.00;58.20;;;;;;5418063;26;20012;-72
2024/04/12 06:19:06;;;;;;;1999.90;999.90;;;12.90;57.40;;;;;;5432510;26;19999;-72
2024/04/12 06:21:32;;;;;;;1999.90;999.90;;;13.30;58.40;;;;;;5415753;26;20015;-72
2024/04/12 06:23:58;;;;;;;1999.90;999.90;;;13.60;56.90;;;;;;5415459;26;20009;-72
2024/04/12 06:26:24;;;;;;;1999.90;999.90;;;13.70;57.30;;;;;;5418097;26;20000;-72
2024/04/12 06:28:51;;;;;;;1999.90;999.90;;;13.70;56.30;;;;;;5431151;26;20055;-72
2024/04/12 06:31:20;;;;;;;1999.90;999.90;;;14.10;54.70;;;;;;5415273;26;20017;-72
2024/04/12 06:33:46;;;;;;;1999.90;999.90;;;14.40;54.10;;;;;;5415610;26;20003;-72
2024/04/12 06:36:16;;;;;;;1999.90;999.90;;;14.60;54.50;;;;;;5429439;26;20075;-71
2024/04/12 06:38:42;;;;;;;1999.90;999.90;;;15.40;52.20;;;;;;5415341;26;20003;-72
2024/04/12 06:41:10;;;;;;;1999.90;999.90;;;15.70;51.80;;;;;;5414272;26;20072;-72
2024/04/12 06:43:37;;;;;;;1999.90;999.90;;;16.20;50.90;;;;;;5432664;26;20301;-72
2024/04/12 06:46:11;;;;;;;1999.90;999.90;;;16.60;49.90;;;;;;5417521;26;19999;-73
2024/04/12 06:48:40;;;;;;;1999.90;999.90;;;17.10;49.40;;;;;;5426064;26;20014;-73
2024/04/12 06:51:11;;;;;;;1999.90;999.90;;;17.70;48.20;;;;;;5409897;26;19999;-73
2024/04/12 06:53:44;;;;;;;1999.90;999.90;;;18.00;47.30;;;;;;5422235;26;20338;-72
2024/04/12 06:56:15;;;;;;;1999.90;999.90;;;18.60;46.90;;;;;;5418404;26;20451;-72
2024/04/12 06:58:46;;;;;;;1999.90;999.90;;;18.60;45.10;;;;;;5427207;26;20015;-72
2024/04/12 07:01:12;;;;;;;1999.90;999.90;;;18.70;45.00;;;;;;5418858;26;19992;-74
2024/04/12 07:03:45;;;;;;;1999.90;999.90;;;18.90;44.10;;;;;;5419209;26;20318;-74
2024/04/12 07:06:14;;;;;;;1999.90;999.90;;;19.00;43.00;;;;;;5419119;26;19999;-72
2024/04/12 07:08:49;;;;;;;1999.90;999.90;;;19.10;44.10;;;;;;5427673;26;19999;-73
2024/04/12 07:11:16;;;;;;;1999.90;999.90;;;19.10;43.20;;;;;;5420771;26;20000;-73
2024/04/12 07:13:49;;;;;;;1999.90;999.90;;;19.30;44.30;;;;;;5422987;26;20003;-73
2024/04/12 07:16:18;;;;;;;1999.90;999.90;;;19.20;42.80;;;;;;5427113;26;20043;-73
2024/04/12 07:18:43;;;;;;;1999.90;999.90;;;19.50;42.70;;;;;;5426384;26;20031;-73
2024/04/12 07:21:15;;;;;;;1999.90;999.90;;;19.40;44.60;;;;;;5421134;26;19999;-73
2024/04/12 07:23:53;;;;;;;1999.90;999.90;;;20.00;42.30;;;;;;5421340;26;19999;-73
2024/04/12 07:26:26;;;;;;;1999.90;999.90;;;19.90;41.40;;;;;;5420945;26;20007;-74
2024/04/12 07:29:02;;;;;;;1999.90;999.90;;;20.20;41.90;;;;;;5424560;26;20011;-74
2024/04/12 07:31:39;;;;;;;1999.90;999.90;;;19.90;40.40;;;;;;5413031;26;20022;-73
2024/04/12 07:34:05;;;;;;;1999.90;999.90;;;20.20;41.00;;;;;;5413863;26;20006;-73
2024/04/12 07:36:32;;;;;;;1999.90;999.90;;;20.90;40.40;;;;;;5419427;26;20739;-73
2024/04/12 07:39:03;;;;;;;1999.90;999.90;;;20.90;39.10;;;;;;5416891;26;20034;-73
2024/04/12 07:41:42;;;;;;;1999.90;999.90;;;21.40;39.80;;;;;;5414115;26;20017;-74
2024/04/12 07:44:12;;;;;;;1999.90;999.90;;;21.80;38.80;;;;;;5428572;26;20005;-74
2024/04/12 07:46:38;;;;;;;1999.90;999.90;;;22.00;37.30;;;;;;5425437;26;20072;-74
2024/04/12 07:49:07;;;;;;;1999.90;999.90;;;22.30;37.10;;;;;;5419627;26;20008;-74
2024/04/12 07:51:39;;;;;;;1999.90;999.90;;;22.60;36.40;;;;;;5423471;26;20026;-75
2024/04/12 07:54:05;;;;;;;1999.90;999.90;;;23.20;35.50;;;;;;5428480;26;20024;-75
2024/04/12 07:56:38;;;;;;;1999.90;999.90;;;23.30;34.70;;;;;;5408069;26;19995;-74
2024/04/12 07:59:13;;;;;;;1999.90;999.90;;;23.70;32.90;;;;;;5434900;26;19998;-74
2024/04/12 08:01:45;;;;;;;1999.90;999.90;;;24.30;32.10;;;;;;5405516;26;20439;-74
2024/04/12 08:04:24;;;;;;;1999.90;999.90;;;24.00;31.70;;;;;;5409680;26;19999;-74
2024/04/12 08:06:57;;;;;;;1999.90;999.90;;;24.20;30.10;;;;;;5415456;26;20003;-74
2024/04/12 08:10:09;;;;;;;1999.90;999.90;;;25.30;30.00;;;;;;5410800;26;20006;-74
2024/04/12 08:12:23;;;;;;;1999.90;999.90;;;24.90;29.40;;;;;;5415869;26;20030;-73
2024/04/12 08:14:53;;;;;;;1999.90;999.90;;;25.90;29.80;;;;;;5415106;26;20721;-74
2024/04/12 08:17:23;;;;;;;1999.90;999.90;;;26.10;31.30;;;;;;5440270;26;20002;-74
2024/04/12 08:19:55;;;;;;;1999.90;999.90;;;25.90;28.70;;;;;;5430842;26;21009;-73
2024/04/12 08:22:25;;;;;;;1999.90;999.90;;;26.20;29.10;;;;;;5437001;26;19999;-74
2024/04/12 08:24:52;;;;;;;1999.90;999.90;;;26.40;29.90;;;;;;5425274;26;20359;-74
2024/04/12 08:27:24;;;;;;;1999.90;999.90;;;27.50;28.50;;;;;;5414829;26;20004;-73
2024/04/12 08:29:55;;;;;;;1999.90;999.90;;;27.10;28.80;;;;;;5424804;26;19999;-74
2024/04/12 08:32:33;;;;;;;1999.90;999.90;;;27.40;29.20;;;;;;5427088;26;20004;-73
2024/04/12 08:35:06;;;;;;;1999.90;999.90;;;28.10;30.30;;;;;;5416332;26;19999;-73
2024/04/12 08:37:36;;;;;;;1999.90;999.90;;;27.80;28.10;;;;;;5425788;26;20945;-74
2024/04/12 08:40:08;;;;;;;1999.90;999.90;;;28.20;27.20;;;;;;5429350;26;20105;-74
2024/04/12 08:42:34;;;;;;;1999.90;999.90;;;28.50;27.60;;;;;;5426436;26;20006;-74
2024/04/12 08:45:12;;;;;;;1999.90;999.90;;;29.40;27.90;;;;;;5431144;26;19999;-77
2024/04/12 08:47:54;;;;;;;1999.90;999.90;;;28.80;26.60;;;;;;5420330;26;20014;-76
2024/04/12 08:50:24;;;;;;;1999.90;999.90;;;29.90;27.40;;;;;;5408483;26;19995;-75
2024/04/12 08:52:53;;;;;;;1999.90;999.90;;;30.30;28.00;;;;;;5412214;26;20057;-75
2024/04/12 08:55:20;;;;;;;1999.90;999.90;;;30.00;26.50;;;;;;5418892;26;20003;-75
2024/04/12 08:57:57;;;;;;;1999.90;999.90;;;30.20;27.30;;;;;;5412655;26;20027;-75
2024/04/12 09:00:28;;;;;;;1999.90;999.90;;;30.40;26.90;;;;;;5409337;26;20011;-74
2024/04/12 09:02:58;;;;;;;1999.90;999.90;;;30.30;27.10;;;;;;5427344;26;20358;-74
2024/04/12 09:05:28;;;;;;;1999.90;999.90;;;30.60;28.60;;;;;;5416313;26;20010;-74
2024/04/12 09:07:58;;;;;;;1999.90;999.90;;;30.50;25.30;;;;;;5412516;26;20067;-74
2024/04/12 09:10:34;;;;;;;1999.90;999.90;;;30.90;25.50;;;;;;5414061;26;20004;-72
2024/04/12 09:13:02;;;;;;;1999.90;999.90;;;31.10;26.40;;;;;;5413226;26;20007;-75
2024/04/12 09:15:32;;;;;;;1999.90;999.90;;;31.10;26.60;;;;;;5425151;26;20084;-75
2024/04/12 09:18:01;;;;;;;1999.90;999.90;;;31.40;26.50;;;;;;5421137;26;20074;-76
2024/04/12 09:20:34;;;;;;;1999.90;999.90;;;31.10;25.70;;;;;;5425635;26;20072;-75
2024/04/12 09:23:14;;;;;;;1999.90;999.90;;;31.70;26.50;;;;;;5413015;26;20763;-75
2024/04/12 09:25:54;;;;;;;1999.90;999.90;;;31.70;26.10;;;;;;5425486;26;20895;-74
2024/04/12 09:28:37;;;;;;;1999.90;999.90;;;31.80;26.60;;;;;;5428507;26;20000;-75
2024/04/12 09:33:50;;;;;;;1999.90;999.90;;;31.60;26.60;;;;;;5413676;26;20009;-75
2024/04/12 09:36:44;;;;;;;1999.90;999.90;;;31.40;26.10;;;;;;5410818;26;20704;-74
2024/04/12 09:39:16;;;;;;;1999.90;999.90;;;31.90;25.60;;;;;;5404475;26;19996;-74
2024/04/12 09:41:56;;;;;;;1999.90;999.90;;;31.60;25.60;;;;;;5416375;26;20000;-74
2024/04/12 09:44:27;;;;;;;1999.90;999.90;;;31.80;25.80;;;;;;5419870;26;20011;-74
2024/04/12 10:37:36;;;;;;;1999.90;999.90;;;25.30;27.70;;;;;;5342531;26;20038;-75
2024/04/12 10:40:04;;;;;;;1999.90;999.90;;;24.80;28.10;;;;;;5354994;26;19997;-74
2024/04/12 10:42:31;;;;;;;1999.90;999.90;;;24.40;27.40;;;;;;5343633;26;20004;-74
2024/04/12 10:45:01;;;;;;;1999.90;999.90;;;24.90;29.40;;;;;;5350656;26;20082;-74
2024/04/12 10:47:28;;;;;;;1999.90;999.90;;;25.00;30.50;;;;;;5338665;26;20005;-74
2024/04/12 10:49:56;;;;;;;1999.90;999.90;;;24.40;28.10;;;;;;5350874;26;20074;-74
2024/04/12 10:52:29;;;;;;;1999.90;999.90;;;23.90;30.80;;;;;;5344109;26;20352;-74
2024/04/12 10:54:56;;;;;;;1999.90;999.90;;;24.00;31.50;;;;;;5348134;26;20032;-74
2024/04/12 10:57:23;;;;;;;1999.90;999.90;;;24.30;29.30;;;;;;5343226;26;19997;-74
2024/04/12 10:59:51;;;;;;;1999.90;999.90;;;24.10;30.60;;;;;;5345996;26;20009;-74
2024/04/12 11:02:17;;;;;;;1999.90;999.90;;;23.70;33.20;;;;;;5351167;26;20023;-74
2024/04/12 11:07:29;;;;;;;1999.90;999.90;;;23.80;34.40;;;;;;5351129;26;20012;-74
2024/04/12 11:09:57;;;;;;;1999.90;999.90;;;23.80;32.90;;;;;;5413957;26;20014;-74
2024/04/12 11:12:40;;;;;;;1999.90;999.90;;;23.70;34.80;;;;;;5423867;26;20038;-74
2024/04/12 11:31:49;;;;;;;1999.90;999.90;;;22.90;32.60;;;;;;5393949;26;20031;-74
2024/04/12 11:34:23;;;;;;;1999.90;999.90;;;23.10;38.50;;;;;;5418891;26;20014;-74
2024/04/12 11:36:53;;;;;;;1999.90;999.90;;;22.90;34.90;;;;;;5424799;26;19995;-74
2024/04/12 11:39:26;;;;;;;1999.90;999.90;;;22.80;33.40;;;;;;5429310;26;20003;-74
2024/04/12 11:41:55;;;;;;;1999.90;999.90;;;22.60;33.50;;;;;;5432499;26;20032;-74
2024/04/12 11:44:21;;;;;;;1999.90;999.90;;;22.70;37.00;;;;;;5423161;26;20145;-74
2024/04/12 11:46:49;;;;;;;1999.90;999.90;;;22.80;39.40;;;;;;5419356;26;19998;-74
2024/04/12 11:49:25;;;;;;;1999.90;999.90;;;22.60;35.90;;;;;;5407639;26;20019;-74
2024/04/12 11:51:57;;;;;;;;;;;22.70;39.30;;;;;;5416416;26;19999;-74
2024/04/12 11:54:29;;;;;;;1999.90;999.90;;;22.50;37.20;;;;;;5410076;26;19936;-74
2024/04/12 11:56:59;;;;;;;1999.90;999.90;;;22.60;40.20;;;;;;5420268;26;20000;-74
2024/04/12 11:59:27;;;;;;;1999.90;999.90;;;22.70;39.00;;;;;;5421981;26;20006;-74
2024/04/12 12:01:59;;;;;;;1999.90;999.90;;;22.70;39.70;;;;;;5419618;26;20014;-74
2024/04/12 12:04:26;;;;;;;1999.90;999.90;;;22.60;40.30;;;;;;5424300;26;20066;-73
2024/04/12 12:06:54;;;;;;;1999.90;999.90;;;22.50;43.20;;;;;;5417013;26;20078;-73
2024/04/12 12:09:20;;;;;;;1999.90;999.90;;;22.50;41.20;;;;;;5428313;26;19999;-73
2024/04/12 12:11:49;;;;;;;1999.90;999.90;;;22.40;38.50;;;;;;5408982;26;20122;-73
2024/04/12 12:14:18;;;;;;;1999.90;999.90;;;22.40;38.90;;;;;;5414788;26;20518;-73
2024/04/12 12:16:44;;;;;;;1999.90;999.90;;;22.30;40.30;;;;;;5421463;26;20011;-73
2024/04/12 12:19:10;;;;;;;1999.90;999.90;;;22.30;38.80;;;;;;5403535;26;20000;-73
2024/04/12 12:21:36;;;;;;;1999.90;999.90;;;22.20;38.10;;;;;;5411296;26;20093;-73
2024/04/12 12:24:06;;;;;;;1999.90;999.90;;;22.00;38.00;;;;;;5417471;26;20003;-74
2024/04/12 12:26:31;;;;;;;1999.90;999.90;;;21.90;41.30;;;;;;5408912;26;19994;-73
2024/04/12 12:28:58;;;;;;;1999.90;999.90;;;22.00;42.40;;;;;;5429255;26;20752;-73
2024/04/12 12:31:24;;;;;;;;;;;22.00;42.40;;;;;;5425997;26;19998;-74
2024/04/12 12:33:49;;;;;;;;;;;21.60;40.40;;;;;;5429313;26;19939;-73
2024/04/12 12:36:16;;;;;;;;;;;21.60;42.70;;;;;;5420559;26;20149;-73
2024/04/12 12:38:43;;;;;;;1999.90;999.90;;;21.70;39.80;;;;;;5427900;26;19924;-73
2024/04/12 12:41:09;;;;;;;;;;;21.70;39.10;;;;;;5422825;26;19996;-74
2024/04/12 12:43:34;;;;;;;;;;;21.80;41.10;;;;;;5425931;26;19925;-74
2024/04/12 12:46:00;;;;;;;;;;;21.70;40.70;;;;;;5423921;26;19931;-73
2024/04/12 12:48:29;;;;;;;1999.90;999.90;;;21.70;42.00;;;;;;5436517;26;20011;-73
2024/04/12 12:50:55;;;;;;;1999.90;999.90;;;21.60;42.90;;;;;;5432097;26;20010;-74
2024/04/12 12:53:22;;;;;;;1999.90;999.90;;;21.50;40.80;;;;;;5415998;26;20403;-74
2024/04/12 12:55:51;;;;;;;1999.90;999.90;;;21.50;42.10;;;;;;5428587;26;20124;-73
2024/04/12 12:58:25;;;;;;;1999.90;999.90;;;21.60;39.50;;;;;;5419936;26;20013;-73
2024/04/12 13:00:51;;;;;;;1999.90;999.90;;;21.60;41.40;;;;;;5403936;26;20000;-73
2024/04/12 13:03:25;;;;;;;;;;;21.70;42.20;;;;;;5404231;26;20142;-73
2024/04/12 13:05:54;;;;;;;1999.90;999.90;;;21.60;38.60;;;;;;5433441;26;19925;-73
2024/04/12 13:08:20;;;;;;;1999.90;999.90;;;21.50;36.10;;;;;;5433743;26;20022;-74
2024/04/12 13:10:49;;;;;;;1999.90;999.90;;;21.50;37.60;;;;;;5414461;26;20350;-74
2024/04/12 13:13:21;;;;;;;1999.90;999.90;;;21.30;33.60;;;;;;5424313;26;20022;-74
2024/04/12 13:15:53;;;;;;;1999.90;999.90;;;21.40;34.10;;;;;;5407845;26;20446;-74
2024/04/12 13:18:23;;;;;;;1999.90;999.90;;;21.40;32.80;;;;;;5414995;26;20492;-74
2024/04/12 13:20:51;;;;;;;1999.90;999.90;;;21.30;31.20;;;;;;5404069;26;20015;-74
2024/04/12 13:23:17;;;;;;;1999.90;999.90;;;21.40;33.30;;;;;;5423575;26;20016;-73
2024/04/12 13:25:46;;;;;;;1999.90;999.90;;;21.30;30.70;;;;;;5415811;26;20450;-74
2024/04/12 13:28:12;;;;;;;1999.90;999.90;;;21.20;28.10;;;;;;5403496;26;20000;-74
2024/04/12 13:30:41;;;;;;;1999.90;999.90;;;21.10;30.20;;;;;;5416943;26;20014;-74
2024/04/12 13:33:08;;;;;;;1999.90;999.90;;;21.10;28.70;;;;;;5423433;26;20245;-74
2024/04/12 13:35:43;;;;;;;1999.90;999.90;;;21.10;26.90;;;;;;5427330;26;20011;-74
2024/04/12 13:38:12;;;;;;;1999.90;999.90;;;21.00;26.10;;;;;;5428541;26;19999;-73